Zhytomyr, Ukraine
Current Conditions -  °F | °C
As of 1:00 AM on Saturday 01 Nov 2014 (Local Time) from UKKM Reporting Station
NA  
Wind Chill: 33°   Ceiling: NA
Heat Index: 39°   Visibility: 3mi
Dew Point: 36°   Wind: 9mph
Humidity: 87%   Direction: 340°NNW
Pressure: 30.21"   Gusts: NA
Location:  50.25°N, 28.67°E
Report Text: UKKM 312200Z AUTO 34004MPS 5000 ///018 04/02 Q1023
Loading
Personal Weather Stations






























Interactive Weather Map
Tropical Storm Tracking
New forecast layout! Learn more

10-Day Weather Forecast

Advertisements
Track Severe Weather on mobile